createdAt,value
2022-11-05T00:02:31.194Z,3.45
2022-11-05T00:05:16.568Z,3.20
2022-11-05T00:08:07.836Z,3.92
2022-11-05T00:10:38.308Z,2.78
2022-11-05T00:13:25.729Z,3.42
2022-11-05T00:16:11.645Z,4.13
2022-11-05T00:18:39.641Z,2.05
2022-11-05T00:21:28.039Z,3.00
2022-11-05T00:24:14.623Z,5.43
2022-11-05T00:26:42.494Z,3.08
2022-11-05T00:29:10.154Z,8.48
2022-11-05T00:31:37.839Z,5.05
2022-11-05T00:34:05.682Z,2.90
2022-11-05T00:36:33.443Z,3.55
2022-11-05T00:39:02.637Z,4.15
2022-11-05T00:41:30.317Z,5.07
2022-11-05T00:44:15.507Z,3.85
2022-11-05T00:46:43.233Z,2.15
2022-11-05T00:49:28.610Z,53.85
2022-11-05T00:52:17.076Z,5.60
2022-11-05T00:54:46.273Z,6.70
2022-11-05T00:57:13.927Z,3.22
2022-11-05T00:59:41.636Z,2.47
2022-11-05T01:02:09.593Z,3.42
2022-11-05T01:04:37.388Z,5.63
2022-11-05T01:07:05.167Z,6.32
2022-11-05T01:09:32.881Z,2.63
2022-11-05T01:12:01.933Z,4.20
2022-11-05T01:14:29.683Z,2.13
2022-11-05T01:16:57.402Z,5.10
2022-11-05T01:19:25.085Z,5.22
2022-11-05T01:21:52.822Z,1.95
2022-11-05T01:24:20.507Z,1.75
2022-11-05T01:26:48.161Z,1.95
2022-11-05T01:29:17.255Z,1.50
2022-11-05T01:31:45.044Z,2.83
2022-11-05T01:34:12.902Z,2.92
2022-11-05T01:36:40.677Z,4.03
2022-11-05T01:39:08.354Z,3.03
2022-11-05T01:41:36.144Z,2.50
2022-11-05T01:44:03.931Z,2.58
2022-11-05T01:46:37.633Z,1.73
2022-11-05T01:49:11.601Z,3.22
2022-11-05T01:51:40.662Z,1.92
2022-11-05T01:54:13.402Z,1.73
2022-11-05T01:56:45.118Z,1.10
2022-11-05T01:59:16.113Z,4.43
2022-11-05T02:01:45.538Z,1.98
2022-11-05T02:04:17.983Z,13.55
2022-11-05T02:06:47.045Z,3.60
2022-11-05T02:09:21.779Z,2.08
2022-11-05T02:11:50.901Z,1.52
2022-11-05T02:14:19.313Z,3.17
2022-11-05T02:16:54.422Z,5.18
2022-11-05T02:19:52.835Z,1.52
2022-11-05T02:22:43.139Z,2.15
2022-11-05T02:25:33.754Z,1.55
2022-11-05T02:28:25.449Z,4.90
2022-11-05T02:31:01.039Z,1.63
2022-11-05T02:33:37.433Z,1.70
2022-11-05T02:36:22.130Z,2.03
2022-11-05T02:38:57.315Z,2.47
2022-11-05T02:41:31.598Z,3.58
2022-11-05T02:44:10.111Z,1.63
2022-11-05T02:46:47.908Z,4.03
2022-11-05T02:49:27.810Z,2.13
2022-11-05T02:51:59.234Z,2.90
2022-11-05T02:54:34.117Z,3.72
2022-11-05T02:57:04.682Z,2.05
2022-11-05T02:59:32.658Z,5.55
2022-11-05T03:02:04.244Z,3.35
2022-11-05T03:04:33.190Z,2.67
2022-11-05T03:07:22.252Z,1.83
2022-11-05T03:10:10.971Z,2.60
2022-11-05T03:12:48.511Z,3.60
2022-11-05T03:15:27.763Z,4.13
2022-11-05T03:18:05.488Z,2.38
2022-11-05T03:20:38.785Z,2.60
2022-11-05T03:23:13.007Z,3.78
2022-11-05T03:25:46.984Z,1.85
2022-11-05T03:28:16.139Z,3.30
2022-11-05T03:30:45.374Z,1.70
2022-11-05T03:33:18.860Z,1.67
2022-11-05T03:35:52.047Z,1.55
2022-11-05T03:38:26.236Z,3.78
2022-11-05T03:40:58.541Z,2.42
2022-11-05T03:43:31.378Z,1.67
2022-11-05T03:46:03.553Z,2.85
2022-11-05T03:51:07.478Z,0.82
2022-11-05T03:53:39.212Z,2.13
2022-11-05T03:56:11.324Z,1.67
2022-11-05T04:01:10.914Z,1.60
2022-11-05T04:03:40.110Z,2.00
2022-11-05T04:06:27.558Z,1.58
2022-11-05T04:09:13.075Z,2.42
2022-11-05T04:11:58.707Z,1.73
2022-11-05T04:14:27.101Z,3.28
2022-11-05T04:17:09.800Z,2.50
2022-11-05T04:19:57.915Z,1.83
2022-11-05T04:22:44.771Z,3.03
2022-11-05T04:25:13.546Z,1.75
2022-11-05T04:27:41.412Z,2.15
2022-11-05T04:30:21.547Z,2.47
2022-11-05T04:33:04.961Z,1.88
2022-11-05T04:35:37.198Z,3.20
2022-11-05T04:38:05.917Z,2.28
2022-11-05T04:40:34.433Z,2.22
2022-11-05T04:43:02.762Z,2.00
2022-11-05T04:45:33.110Z,1.65
2022-11-05T04:48:01.165Z,2.35
2022-11-05T04:50:29.429Z,4.35
2022-11-05T04:52:58.794Z,2.10
2022-11-05T04:55:27.197Z,3.55
2022-11-05T04:57:56.025Z,2.08
2022-11-05T05:00:24.969Z,1.52
2022-11-05T05:02:53.127Z,2.50
2022-11-05T05:05:21.961Z,2.75
2022-11-05T05:07:49.733Z,2.40
2022-11-05T05:10:19.568Z,2.85
2022-11-05T05:12:48.438Z,1.85
2022-11-05T05:15:16.348Z,3.00
2022-11-05T05:17:44.114Z,3.90
2022-11-05T05:20:29.311Z,1.65
2022-11-05T05:22:57.186Z,3.40
2022-11-05T05:25:26.382Z,3.45
2022-11-05T05:27:54.231Z,3.30
2022-11-05T05:30:22.059Z,3.58
2022-11-05T05:32:49.827Z,2.97
2022-11-05T05:35:17.834Z,5.88
2022-11-05T05:37:45.595Z,4.40
2022-11-05T05:40:13.473Z,3.53
2022-11-05T05:42:43.569Z,4.07
2022-11-05T05:45:12.516Z,2.10
2022-11-05T05:47:40.352Z,5.40
2022-11-05T05:50:08.533Z,2.88
2022-11-05T05:52:36.317Z,3.03
2022-11-05T05:55:04.080Z,3.33
2022-11-05T05:57:31.843Z,4.55
2022-11-05T06:00:01.946Z,2.83
2022-11-05T06:02:31.515Z,5.25
2022-11-05T06:04:59.450Z,4.05
2022-11-05T06:07:27.185Z,3.08
2022-11-05T06:09:54.979Z,4.30
2022-11-05T06:12:22.801Z,6.45
2022-11-05T06:14:50.635Z,3.13
2022-11-05T06:17:19.809Z,6.53
2022-11-05T06:19:47.852Z,3.55
2022-11-05T06:22:16.021Z,3.03
2022-11-05T06:24:43.794Z,3.13
2022-11-05T06:27:11.603Z,2.92
2022-11-05T06:29:39.579Z,2.85
2022-11-05T06:32:07.406Z,2.97
2022-11-05T06:34:36.904Z,2.92
2022-11-05T06:37:04.694Z,5.18
2022-11-05T06:39:32.382Z,3.53
2022-11-05T06:44:48.165Z,3.40
2022-11-05T06:47:16.074Z,4.97
2022-11-05T06:49:45.317Z,5.28
2022-11-05T06:52:14.050Z,4.28
2022-11-05T06:54:42.910Z,3.60
2022-11-05T06:57:11.631Z,3.05
2022-11-05T06:59:40.240Z,3.80
2022-11-05T07:02:08.700Z,4.18
2022-11-05T07:04:36.670Z,4.97
2022-11-05T07:07:05.795Z,6.22
2022-11-05T07:09:33.544Z,5.22
2022-11-05T07:12:01.350Z,5.13
2022-11-05T07:14:29.209Z,4.38
2022-11-05T07:16:58.209Z,6.50
2022-11-05T07:19:25.980Z,6.97
2022-11-05T07:21:53.844Z,7.22
2022-11-05T07:24:23.038Z,8.93
2022-11-05T07:26:50.774Z,3.72
2022-11-05T07:29:18.564Z,5.35
2022-11-05T07:31:47.320Z,5.72
2022-11-05T07:34:15.483Z,3.42
2022-11-05T07:36:43.260Z,3.00
2022-11-05T07:39:11.055Z,4.57
2022-11-05T07:41:40.438Z,4.05
2022-11-05T07:44:08.379Z,3.63
2022-11-05T07:46:36.122Z,2.50
2022-11-05T07:49:04.089Z,3.10
2022-11-05T07:51:31.873Z,4.60
2022-11-05T07:53:59.633Z,7.53
2022-11-05T07:56:27.436Z,4.90
2022-11-05T07:58:56.557Z,4.57
2022-11-05T08:01:24.648Z,4.30
2022-11-05T08:03:52.545Z,5.90
2022-11-05T08:06:20.428Z,3.35
2022-11-05T08:08:48.268Z,5.70
2022-11-05T08:11:16.061Z,4.43
2022-11-05T08:13:44.061Z,4.22
2022-11-05T08:16:13.258Z,2.38
2022-11-05T08:18:41.028Z,4.40
2022-11-05T08:21:09.553Z,3.58
2022-11-05T08:23:38.659Z,3.17
2022-11-05T08:26:07.009Z,2.30
2022-11-05T08:28:34.802Z,2.15
2022-11-05T08:31:02.595Z,2.90
2022-11-05T08:33:33.137Z,2.85
2022-11-05T08:36:03.918Z,2.95
2022-11-05T08:38:31.838Z,4.00
2022-11-05T08:41:00.488Z,4.05
2022-11-05T08:43:30.937Z,2.97
2022-11-05T08:46:01.206Z,2.22
2022-11-05T08:48:28.971Z,3.58
2022-11-05T08:51:01.264Z,1.63
2022-11-05T08:53:29.283Z,1.73
2022-11-05T08:55:59.235Z,3.72
2022-11-05T08:58:27.058Z,2.58
2022-11-05T09:00:57.830Z,5.90
2022-11-05T09:03:28.414Z,4.65
2022-11-05T09:05:56.113Z,1.45
2022-11-05T09:08:25.167Z,1.60
2022-11-05T09:10:52.863Z,2.08
2022-11-05T09:13:20.819Z,2.28
2022-11-05T09:15:49.134Z,4.40
2022-11-05T09:18:18.288Z,2.35
2022-11-05T09:20:46.076Z,4.70
2022-11-05T09:23:15.803Z,2.47
2022-11-05T09:25:45.488Z,1.27
2022-11-05T09:28:17.018Z,1.23
2022-11-05T09:30:46.743Z,2.28
2022-11-05T09:33:14.944Z,2.60
2022-11-05T09:35:43.670Z,3.15
2022-11-05T09:38:11.454Z,1.77
2022-11-05T09:40:56.629Z,2.78
2022-11-05T09:43:31.719Z,1.80
2022-11-05T09:46:03.349Z,1.90
2022-11-05T09:48:34.463Z,3.40
2022-11-05T09:51:02.416Z,6.47
2022-11-05T09:53:30.134Z,2.90
2022-11-05T09:56:01.566Z,2.53
2022-11-05T09:58:39.938Z,2.08
2022-11-05T10:01:13.410Z,5.05
2022-11-05T10:03:46.636Z,3.25
2022-11-05T10:06:20.644Z,2.75
2022-11-05T10:08:52.675Z,3.50
2022-11-05T10:11:25.983Z,2.80
2022-11-05T10:13:57.610Z,4.20
2022-11-05T10:16:28.410Z,7.65
2022-11-05T10:19:02.063Z,4.40
2022-11-05T10:21:59.395Z,4.13
2022-11-05T10:24:19.974Z,4.47
2022-11-05T10:26:51.587Z,4.03
2022-11-05T10:29:26.770Z,3.65
2022-11-05T10:31:56.028Z,4.07
2022-11-05T10:34:26.493Z,4.93
2022-11-05T10:36:54.502Z,7.55
2022-11-05T10:39:23.479Z,7.30
2022-11-05T10:42:07.942Z,3.60
2022-11-05T10:44:40.577Z,4.55
2022-11-05T10:47:33.597Z,6.70
2022-11-05T10:50:02.533Z,5.00
2022-11-05T10:52:35.243Z,3.75
2022-11-05T10:55:06.153Z,4.88
2022-11-05T10:57:37.902Z,4.80
2022-11-05T11:00:28.808Z,9.68
2022-11-05T11:02:59.614Z,6.88
2022-11-05T11:05:30.783Z,4.25
2022-11-05T11:08:02.291Z,4.40
2022-11-05T11:10:33.802Z,5.32
2022-11-05T11:13:03.321Z,5.25
2022-11-05T11:15:35.103Z,4.47
2022-11-05T11:18:27.031Z,7.82
2022-11-05T11:20:54.867Z,5.68
2022-11-05T11:23:22.671Z,5.30
2022-11-05T11:25:53.942Z,6.47
2022-11-05T11:28:33.917Z,7.03
2022-11-05T11:31:06.827Z,9.27
2022-11-05T11:33:36.014Z,6.03
2022-11-05T11:36:04.050Z,7.35
2022-11-05T11:38:34.491Z,8.05
2022-11-05T11:41:13.820Z,4.25
2022-11-05T11:43:44.135Z,8.00
2022-11-05T11:46:16.088Z,5.10
2022-11-05T11:48:47.441Z,6.57
2022-11-05T11:51:32.267Z,5.47
2022-11-05T11:54:01.828Z,5.82
2022-11-05T11:56:30.407Z,4.85
2022-11-05T11:59:03.973Z,5.53
2022-11-05T12:01:55.231Z,5.30
2022-11-05T12:04:38.507Z,8.73
2022-11-05T12:07:15.169Z,7.47
2022-11-05T12:09:57.187Z,4.90
2022-11-05T12:12:33.149Z,5.10
2022-11-05T12:15:16.433Z,6.13
2022-11-05T12:17:52.871Z,4.68
2022-11-05T12:20:35.002Z,5.07
2022-11-05T12:23:23.592Z,4.63
2022-11-05T12:26:00.443Z,6.00
2022-11-05T12:29:04.464Z,6.75
2022-11-05T12:31:42.455Z,8.02
2022-11-05T12:34:26.423Z,7.35
2022-11-05T12:37:15.581Z,5.38
2022-11-05T12:39:50.846Z,4.95
2022-11-05T12:42:34.875Z,5.88
2022-11-05T12:45:08.566Z,7.93
2022-11-05T12:47:50.433Z,7.30
2022-11-05T12:50:26.065Z,11.40
2022-11-05T12:53:23.196Z,10.63
2022-11-05T12:55:52.575Z,8.05
2022-11-05T12:58:24.823Z,9.43
2022-11-05T13:00:58.754Z,6.97
2022-11-05T13:03:38.763Z,8.23
2022-11-05T13:06:10.075Z,9.00
2022-11-05T13:08:42.380Z,11.13
2022-11-05T13:11:18.285Z,6.45
2022-11-05T13:13:53.095Z,7.30
2022-11-05T13:16:26.876Z,7.40
2022-11-05T13:19:01.326Z,7.97
2022-11-05T13:21:31.160Z,11.45
2022-11-05T13:24:05.154Z,5.55
2022-11-05T13:26:40.938Z,7.30
2022-11-05T13:29:14.886Z,5.53
2022-11-05T13:31:46.504Z,4.47
2022-11-05T13:34:15.588Z,8.52
2022-11-05T13:37:15.173Z,7.28
2022-11-05T13:39:47.046Z,8.18
2022-11-05T13:42:45.313Z,5.95
2022-11-05T13:45:34.800Z,4.80
2022-11-05T13:48:38.318Z,8.25
2022-11-05T13:51:39.302Z,8.13
2022-11-05T13:54:46.909Z,7.38
2022-11-05T13:57:35.917Z,7.85
2022-11-05T14:00:12.434Z,8.85
2022-11-05T14:02:45.108Z,7.18
2022-11-05T14:05:25.303Z,5.00
2022-11-05T14:07:55.633Z,5.40
2022-11-05T14:10:32.292Z,4.68
2022-11-05T14:13:03.532Z,4.57
2022-11-05T14:15:32.943Z,9.00
2022-11-05T14:18:03.088Z,8.32
2022-11-05T14:20:57.349Z,9.88
2022-11-05T14:23:39.162Z,7.47
2022-11-05T14:26:19.139Z,5.80
2022-11-05T14:29:20.323Z,5.70
2022-11-05T14:32:12.850Z,7.45
2022-11-05T14:34:54.803Z,5.93
2022-11-05T14:37:28.499Z,7.68
2022-11-05T14:40:02.816Z,8.88
2022-11-05T14:42:32.292Z,14.05
2022-11-05T14:45:04.457Z,9.00
2022-11-05T14:50:11.554Z,7.28
2022-11-05T14:52:41.417Z,9.13
2022-11-05T14:55:28.156Z,8.68
2022-11-05T14:58:12.942Z,9.23
2022-11-05T15:00:47.943Z,9.20
2022-11-05T15:03:41.079Z,13.63
2022-11-05T15:06:27.630Z,11.15
2022-11-05T15:09:04.914Z,13.02
2022-11-05T15:11:38.934Z,15.48
2022-11-05T15:14:17.786Z,15.63
2022-11-05T15:16:49.939Z,13.43
2022-11-05T15:21:46.872Z,15.32
2022-11-05T15:24:17.665Z,11.40
2022-11-05T15:26:51.070Z,12.77
2022-11-05T15:29:21.546Z,10.43
2022-11-05T15:31:49.974Z,10.82
2022-11-05T15:34:20.995Z,12.18
2022-11-05T15:36:54.907Z,14.30
2022-11-05T15:39:30.125Z,12.02
2022-11-05T15:42:02.342Z,11.45
2022-11-05T15:44:32.998Z,15.00
2022-11-05T15:47:20.123Z,11.20
2022-11-05T15:49:50.104Z,11.40
2022-11-05T15:52:20.668Z,13.32
2022-11-05T15:55:07.957Z,16.23
2022-11-05T15:57:40.298Z,11.60
2022-11-05T16:00:17.511Z,13.45
2022-11-05T16:02:53.582Z,11.45
2022-11-05T16:05:22.004Z,13.27
2022-11-05T16:07:50.153Z,12.48
2022-11-05T16:10:20.274Z,10.77
2022-11-05T16:12:49.530Z,10.63
2022-11-05T16:15:24.325Z,12.35
2022-11-05T16:17:55.979Z,12.45
2022-11-05T16:20:34.728Z,13.95
2022-11-05T16:23:04.870Z,10.52
2022-11-05T16:25:43.893Z,8.48
2022-11-05T16:28:23.518Z,13.25
2022-11-05T16:30:56.886Z,9.23
2022-11-05T16:33:25.868Z,12.80
2022-11-05T16:35:53.922Z,12.05
2022-11-05T16:38:21.999Z,7.40
2022-11-05T16:40:50.004Z,8.10
2022-11-05T16:43:20.266Z,11.68
2022-11-05T16:45:49.852Z,14.35
2022-11-05T16:48:17.731Z,13.43
2022-11-05T16:50:46.872Z,7.93
2022-11-05T16:53:14.940Z,11.13
2022-11-05T16:55:44.840Z,13.00
2022-11-05T16:58:20.655Z,10.27
2022-11-05T17:00:51.898Z,14.40
2022-11-05T17:03:20.207Z,9.73
2022-11-05T17:05:48.273Z,14.35
2022-11-05T17:08:16.155Z,10.80
2022-11-05T17:10:44.057Z,9.35
2022-11-05T17:13:15.268Z,9.40
2022-11-05T17:15:44.199Z,9.50
2022-11-05T17:18:18.185Z,10.48
2022-11-05T17:20:48.093Z,8.30
2022-11-05T17:23:17.506Z,9.70
2022-11-05T17:25:47.907Z,8.13
2022-11-05T17:28:17.245Z,10.85
2022-11-05T17:30:51.988Z,10.00
2022-11-05T17:33:22.616Z,9.43
2022-11-05T17:35:50.835Z,13.60
2022-11-05T17:38:18.987Z,13.40
2022-11-05T17:40:47.075Z,11.63
2022-11-05T17:43:15.953Z,14.25
2022-11-05T17:45:45.223Z,9.50
2022-11-05T17:48:13.368Z,14.02
2022-11-05T17:50:43.289Z,15.75
2022-11-05T17:53:11.641Z,11.05
2022-11-05T17:55:41.726Z,12.73
2022-11-05T17:58:09.612Z,12.95
2022-11-05T18:00:37.569Z,11.30
2022-11-05T18:03:06.177Z,15.20
2022-11-05T18:05:35.092Z,11.35
2022-11-05T18:08:05.023Z,11.45
2022-11-05T18:10:33.324Z,12.98
2022-11-05T18:13:01.018Z,10.15
2022-11-05T18:15:28.735Z,13.70
2022-11-05T18:17:56.439Z,26.83
2022-11-05T18:20:24.268Z,15.73
2022-11-05T18:22:52.544Z,10.45
2022-11-05T18:25:21.644Z,13.57
2022-11-05T18:27:49.308Z,11.20
2022-11-05T18:30:17.033Z,13.05
2022-11-05T18:32:45.368Z,13.25
2022-11-05T18:35:14.486Z,11.90
2022-11-05T18:37:42.368Z,11.82
2022-11-05T18:40:11.176Z,16.83
2022-11-05T18:42:40.427Z,13.73
2022-11-05T18:45:09.626Z,16.83
2022-11-05T18:47:37.565Z,11.63
2022-11-05T18:50:06.286Z,12.02
2022-11-05T18:52:34.024Z,11.60
2022-11-05T18:55:01.703Z,15.15
2022-11-05T18:57:29.434Z,16.52
2022-11-05T18:59:58.441Z,11.00
2022-11-05T19:02:26.673Z,10.15
2022-11-05T19:05:26.869Z,8.35
2022-11-05T19:07:42.223Z,8.52
2022-11-05T19:10:10.754Z,10.20
2022-11-05T19:12:38.488Z,7.38
2022-11-05T19:15:09.118Z,7.15
2022-11-05T19:17:37.341Z,10.35
2022-11-05T19:20:06.775Z,7.93
2022-11-05T19:22:34.498Z,13.77
2022-11-05T19:25:02.287Z,9.95
2022-11-05T19:27:30.254Z,14.23
2022-11-05T19:29:58.206Z,9.88
2022-11-05T19:32:27.684Z,13.15
2022-11-05T19:34:55.371Z,9.95
2022-11-05T19:37:23.125Z,11.68
2022-11-05T19:39:50.808Z,14.00
2022-11-05T19:42:18.675Z,10.80
2022-11-05T19:44:46.412Z,11.18
2022-11-05T19:47:14.132Z,9.68
2022-11-05T19:49:43.218Z,13.00
2022-11-05T19:52:11.003Z,12.90
2022-11-05T19:54:38.800Z,11.13
2022-11-05T19:57:06.696Z,13.73
2022-11-05T19:59:34.489Z,10.45
2022-11-05T20:02:02.300Z,15.25
2022-11-05T20:04:30.228Z,18.73
2022-11-05T20:06:59.763Z,10.13
2022-11-05T20:09:27.738Z,11.82
2022-11-05T20:11:56.287Z,12.65
2022-11-05T20:14:25.371Z,12.90
2022-11-05T20:16:53.664Z,22.88
2022-11-05T20:19:23.009Z,13.20
2022-11-05T20:21:50.986Z,11.48
2022-11-05T20:24:25.249Z,14.93
2022-11-05T20:26:53.819Z,15.57
2022-11-05T20:29:22.440Z,14.90
2022-11-05T20:31:51.157Z,19.35
2022-11-05T20:34:19.021Z,14.88
2022-11-05T20:36:46.823Z,15.23
2022-11-05T20:39:14.630Z,14.85
2022-11-05T20:41:43.855Z,13.43
2022-11-05T20:44:11.780Z,11.48
2022-11-05T20:46:39.797Z,11.50
2022-11-05T20:49:07.756Z,12.85
2022-11-05T20:51:35.681Z,15.73
2022-11-05T20:54:03.853Z,12.63
2022-11-05T20:56:34.709Z,15.68
2022-11-05T20:59:04.044Z,15.88
2022-11-05T21:01:34.174Z,16.83
2022-11-05T21:04:02.878Z,15.82
2022-11-05T21:06:30.937Z,16.50
2022-11-05T21:08:58.797Z,16.65
2022-11-05T21:11:26.490Z,18.58
2022-11-05T21:13:54.740Z,17.83
2022-11-05T21:16:23.846Z,15.15
2022-11-05T21:18:51.564Z,16.35
2022-11-05T21:21:21.416Z,17.63
2022-11-05T21:23:49.219Z,18.75
2022-11-05T21:26:18.646Z,16.00
2022-11-05T21:28:46.613Z,14.90
2022-11-05T21:31:14.476Z,14.40
2022-11-05T21:33:43.624Z,17.10
2022-11-05T21:36:13.948Z,21.25
2022-11-05T21:38:42.221Z,17.10
2022-11-05T21:41:11.607Z,14.82
2022-11-05T21:43:41.637Z,24.73
2022-11-05T21:46:09.681Z,19.52
2022-11-05T21:48:37.597Z,15.98
2022-11-05T21:51:24.291Z,22.00
2022-11-05T21:54:09.528Z,21.33
2022-11-05T21:56:54.920Z,19.10
2022-11-05T21:59:50.241Z,62.63
2022-11-05T22:02:20.572Z,16.98
2022-11-05T22:04:50.320Z,16.50
2022-11-05T22:07:21.774Z,20.27
2022-11-05T22:09:49.621Z,15.75
2022-11-05T22:12:17.471Z,17.42
2022-11-05T22:14:45.287Z,21.25
2022-11-05T22:17:14.170Z,18.20
2022-11-05T22:19:41.828Z,16.55
2022-11-05T22:22:09.788Z,18.60
2022-11-05T22:24:39.303Z,19.95
2022-11-05T22:27:09.153Z,18.50
2022-11-05T22:29:37.647Z,18.40
2022-11-05T22:32:06.469Z,16.60
2022-11-05T22:34:34.425Z,16.58
2022-11-05T22:37:02.137Z,20.23
2022-11-05T22:39:29.962Z,23.67
2022-11-05T22:42:04.230Z,21.40
2022-11-05T22:44:35.296Z,27.90
2022-11-05T22:47:02.968Z,64.00
2022-11-05T22:49:30.686Z,78.43
2022-11-05T22:51:58.438Z,63.03
2022-11-05T22:54:26.279Z,102.20
2022-11-05T22:56:54.100Z,304.63
2022-11-05T22:59:23.312Z,231.40
2022-11-05T23:01:51.103Z,92.03
2022-11-05T23:04:18.904Z,118.85
2022-11-05T23:07:03.977Z,80.45
2022-11-05T23:09:51.783Z,100.07
2022-11-05T23:12:23.436Z,26.75
2022-11-05T23:14:53.036Z,38.78
2022-11-05T23:17:38.409Z,53.75
2022-11-05T23:20:25.809Z,99.88
2022-11-05T23:23:11.050Z,34.47
2022-11-05T23:25:38.734Z,62.13
2022-11-05T23:28:09.781Z,51.95
2022-11-05T23:31:04.768Z,38.47
2022-11-05T23:33:34.295Z,43.67
2022-11-05T23:36:19.470Z,24.58
2022-11-05T23:38:47.540Z,45.45
2022-11-05T23:41:32.593Z,130.88
2022-11-05T23:44:17.860Z,35.17
2022-11-05T23:47:04.335Z,242.98
2022-11-05T23:49:32.103Z,41.08
2022-11-05T23:51:59.742Z,34.65
2022-11-05T23:54:27.495Z,42.03
2022-11-05T23:56:55.196Z,40.60
2022-11-05T23:59:22.942Z,34.20
